KGYB

Giddings-Lee County Airport

Giddings, Texas, USA
METAR KGYB 161415Z AUTO 00000KT 10SM BKN080 OVC095 07/04 A3018 RMK AO2 T00670038
Observed Flight Rules
Dec-16 @ 14:15 UTC (31 minutes ago) Visual Flight Rules
Wind Visibility Clouds
Calm 10 miles
  • Broken at 8,000' AGL
  • Overcast at 9,500' AGL
Temperatures Readings
Current 7°C / 45°F
Dewpoint 4°C / 39°F
Humidity 81%
Altimeter 30.18" Hg
Pressure 1022 hPa
Elevation 148
METAR KGYB 161415Z AUTO 00000KT 10SM BKN080 OVC095 07/04 A3018 RMK AO2 T00670038
Observed Flight Rules
Dec-16 @ 14:15 UTC
(31 minutes ago)
VFR
Wind Visibility
Calm 10 miles
Clouds
  • Broken at 8,000' AGL
  • Overcast at 9,500' AGL
Temperature Dewpoint
7°C / 45°F 4°C / 39°F
Humidity Altimeter Pressure
81% 30.18" Hg 1022 hPa